Overview Statistics Trail Chart Weather Telemetry Raw packets
 

This is the latest recevied weather packets stored in our database for station/object DB0OHL. If no packets are shown the sender has not sent any weather packets the latest 10 day(s).

<< 1 2 3 4 >>
Time Temp. Humidity Pressure Rain* Wind** Luminosity Snow
1777793749 17.22° C 77% 1010.8 hPa 0 mm - - -
1777793147 17.22° C 81% 1010.8 hPa 0 mm - - -
1777792544 17.22° C 81% 1010.8 hPa 0 mm - - -
1777791942 16.67° C 81% 1010.7 hPa 0 mm - - -
1777791339 16.67° C 82% 1010.8 hPa 0 mm - - -
1777790737 16.11° C 82% 1010.9 hPa 0 mm - - -
1777790134 16.11° C 83% 1010.8 hPa 0 mm - - -
1777789532 15.56° C 82% 1010.9 hPa 0 mm - - -
1777788929 15.56° C 82% 1011 hPa 0 mm - - -
1777788327 15.56° C 83% 1011 hPa 0 mm - - -
1777787724 15° C 87% 1011 hPa 0 mm - - -
1777787122 14.44° C 89% 1011 hPa 0 mm - - -
1777786519 14.44° C 89% 1011.1 hPa 0 mm - - -
1777785916 15° C 87% 1011 hPa 0 mm - - -
1777785374 15° C 87% 1011.1 hPa 0 mm - - -
1777784772 14.44° C 93% 1011 hPa 0 mm - - -
1777784169 13.89° C 96% 1011 hPa 0 mm - - -
1777783566 13.33° C 99% 1010.8 hPa 0 mm - - -
1777782964 13.33° C 99% 1011 hPa 0 mm - - -
1777782361 13.33° C 99% 1011.1 hPa 0 mm - - -
1777781759 13.33° C 99% 1011.2 hPa 0 mm - - -
1777781156 13.33° C 99% 1011.2 hPa 0 mm - - -
1777780554 13.89° C 98% 1011.3 hPa 0 mm - - -
1777779951 13.89° C 97% 1011.3 hPa 0 mm - - -
1777779349 14.44° C 97% 1011.1 hPa 0 mm - - -

* Rain latest hour (hover to see other rain measurements)
** Current wind speed in m/s (hover to see current wind gust speed)